createdAt,value
2018-10-01T00:01:18.971Z,14.80
2018-10-01T00:03:48.011Z,14.90
2018-10-01T00:06:17.239Z,14.70
2018-10-01T00:08:46.462Z,14.80
2018-10-01T00:11:15.543Z,14.70
2018-10-01T00:13:44.594Z,14.70
2018-10-01T00:16:13.651Z,14.70
2018-10-01T00:18:42.727Z,14.80
2018-10-01T00:21:17.266Z,14.70
2018-10-01T00:23:46.358Z,14.70
2018-10-01T00:26:15.471Z,14.80
2018-10-01T00:28:44.540Z,14.90
2018-10-01T00:31:13.575Z,14.90
2018-10-01T00:33:42.647Z,14.90
2018-10-01T00:36:11.737Z,14.80
2018-10-01T00:38:40.821Z,14.90
2018-10-01T00:41:18.597Z,14.80
2018-10-01T00:43:47.734Z,14.70
2018-10-01T00:46:16.794Z,14.80
2018-10-01T00:48:45.861Z,14.80
2018-10-01T00:51:14.913Z,14.80
2018-10-01T00:53:43.977Z,14.70
2018-10-01T00:56:13.034Z,14.70
2018-10-01T00:58:42.098Z,14.60
2018-10-01T01:01:11.166Z,14.60
2018-10-01T01:03:40.250Z,14.60
2018-10-01T01:06:09.321Z,14.60
2018-10-01T01:08:38.388Z,14.60
2018-10-01T01:11:07.458Z,14.50
2018-10-01T01:13:36.529Z,14.60
2018-10-01T01:16:05.589Z,14.50
2018-10-01T01:18:34.681Z,14.50
2018-10-01T01:21:04.026Z,14.50
2018-10-01T01:23:33.098Z,14.40
2018-10-01T01:26:02.150Z,14.50
2018-10-01T01:28:31.286Z,14.40
2018-10-01T01:31:00.369Z,14.40
2018-10-01T01:33:29.449Z,14.40
2018-10-01T01:35:58.506Z,14.40
2018-10-01T01:38:27.622Z,14.40
2018-10-01T01:40:56.722Z,14.40
2018-10-01T01:43:25.819Z,14.40
2018-10-01T01:45:54.874Z,14.40
2018-10-01T01:48:23.962Z,14.40
2018-10-01T01:50:53.017Z,14.40
2018-10-01T01:53:22.070Z,14.30
2018-10-01T01:55:51.145Z,14.10
2018-10-01T01:58:20.206Z,14.20
2018-10-01T02:00:49.593Z,14.30
2018-10-01T02:03:18.642Z,14.30
2018-10-01T02:05:47.733Z,14.30
2018-10-01T02:08:16.866Z,14.30
2018-10-01T02:10:45.946Z,14.30
2018-10-01T02:13:14.992Z,14.30
2018-10-01T02:15:44.087Z,14.30
2018-10-01T02:18:13.144Z,14.20
2018-10-01T02:20:42.325Z,14.30
2018-10-01T02:23:11.365Z,14.30
2018-10-01T02:25:40.440Z,14.30
2018-10-01T02:28:09.489Z,14.30
2018-10-01T02:30:38.567Z,14.30
2018-10-01T02:33:07.609Z,14.30
2018-10-01T02:35:36.683Z,14.20
2018-10-01T02:38:05.881Z,14.20
2018-10-01T02:40:35.030Z,14.20
2018-10-01T02:43:04.110Z,14.20
2018-10-01T02:45:33.199Z,14.20
2018-10-01T02:48:02.318Z,14.10
2018-10-01T02:50:31.421Z,14.10
2018-10-01T02:53:05.668Z,14.00
2018-10-01T02:55:34.777Z,14.10
2018-10-01T02:58:04.170Z,14.10
2018-10-01T03:00:33.281Z,14.20
2018-10-01T03:03:02.349Z,14.20
2018-10-01T03:05:31.473Z,14.20
2018-10-01T03:08:00.545Z,14.10
2018-10-01T03:10:29.634Z,14.20
2018-10-01T03:12:58.706Z,14.20
2018-10-01T03:15:27.810Z,14.10
2018-10-01T03:17:57.004Z,14.20
2018-10-01T03:20:26.095Z,14.20
2018-10-01T03:22:55.181Z,14.20
2018-10-01T03:25:24.287Z,14.20
2018-10-01T03:27:53.485Z,14.20
2018-10-01T03:30:22.585Z,14.20
2018-10-01T03:32:51.690Z,14.20
2018-10-01T03:35:20.778Z,14.10
2018-10-01T03:37:49.977Z,14.10
2018-10-01T03:40:19.176Z,14.10
2018-10-01T03:42:48.177Z,14.20
2018-10-01T03:45:17.250Z,14.40
2018-10-01T03:47:46.330Z,14.70
2018-10-01T03:50:15.394Z,14.50
2018-10-01T03:52:44.465Z,14.40
2018-10-01T03:55:13.506Z,14.30
2018-10-01T03:57:42.631Z,14.30
2018-10-01T04:00:11.682Z,14.30
2018-10-01T04:02:40.750Z,14.30
2018-10-01T04:05:09.834Z,14.20
2018-10-01T04:07:39.003Z,14.30
2018-10-01T04:10:08.106Z,14.20
2018-10-01T04:12:37.195Z,14.20
2018-10-01T04:15:06.294Z,14.90
2018-10-01T04:17:35.393Z,14.80
2018-10-01T04:20:04.559Z,14.30
2018-10-01T04:22:37.115Z,14.30
2018-10-01T04:25:07.522Z,14.30
2018-10-01T04:27:37.195Z,14.20
2018-10-01T04:30:09.561Z,14.20
2018-10-01T04:32:38.638Z,14.10
2018-10-01T04:35:08.249Z,14.10
2018-10-01T04:37:37.314Z,14.00
2018-10-01T04:40:06.549Z,14.00
2018-10-01T04:42:35.867Z,14.00
2018-10-01T04:45:04.994Z,14.00
2018-10-01T04:47:34.341Z,14.00
2018-10-01T04:50:03.629Z,14.10
2018-10-01T04:52:32.723Z,14.10
2018-10-01T04:55:01.798Z,14.00
2018-10-01T04:57:30.989Z,14.00
2018-10-01T05:00:00.093Z,13.90
2018-10-01T05:02:29.236Z,13.90
2018-10-01T05:04:58.333Z,13.80
2018-10-01T05:07:27.427Z,13.80
2018-10-01T05:09:56.493Z,13.80
2018-10-01T05:12:25.580Z,13.80
2018-10-01T05:14:54.724Z,13.60
2018-10-01T05:17:23.765Z,13.70
2018-10-01T05:19:52.849Z,13.70
2018-10-01T05:22:21.942Z,13.60
2018-10-01T05:24:51.021Z,13.60
2018-10-01T05:27:20.169Z,13.50
2018-10-01T05:29:49.246Z,13.40
2018-10-01T05:32:18.321Z,13.30
2018-10-01T05:34:47.417Z,13.30
2018-10-01T05:37:16.513Z,13.30
2018-10-01T05:39:45.611Z,13.30
2018-10-01T05:42:14.725Z,13.30
2018-10-01T05:44:43.821Z,13.10
2018-10-01T05:47:12.973Z,13.00
2018-10-01T05:49:42.065Z,13.10
2018-10-01T05:52:11.142Z,13.10
2018-10-01T05:54:40.241Z,13.10
2018-10-01T05:57:09.321Z,13.00
2018-10-01T05:59:38.425Z,13.10
2018-10-01T06:02:07.538Z,13.10
2018-10-01T06:04:36.658Z,13.10
2018-10-01T06:07:06.437Z,13.10
2018-10-01T06:09:35.558Z,13.10
2018-10-01T06:12:04.654Z,13.00
2018-10-01T06:14:33.766Z,13.00
2018-10-01T06:17:02.959Z,13.10
2018-10-01T06:19:32.107Z,12.90
2018-10-01T06:22:01.386Z,12.80
2018-10-01T06:24:30.490Z,12.70
2018-10-01T06:26:59.626Z,12.80
2018-10-01T06:29:28.922Z,12.90
2018-10-01T06:31:58.223Z,13.00
2018-10-01T06:34:27.298Z,13.00
2018-10-01T06:36:56.441Z,13.00
2018-10-01T06:39:25.594Z,13.10
2018-10-01T06:41:54.848Z,13.10
2018-10-01T06:44:23.919Z,13.10
2018-10-01T06:46:53.273Z,13.00
2018-10-01T06:49:22.377Z,13.00
2018-10-01T06:51:51.498Z,13.00
2018-10-01T06:54:20.597Z,13.00
2018-10-01T06:56:49.714Z,13.00
2018-10-01T06:59:18.821Z,13.00
2018-10-01T07:01:47.979Z,12.90
2018-10-01T07:04:17.061Z,13.00
2018-10-01T07:06:46.149Z,12.80
2018-10-01T07:09:15.230Z,12.90
2018-10-01T07:11:44.361Z,12.90
2018-10-01T07:14:13.448Z,12.90
2018-10-01T07:16:42.594Z,12.80
2018-10-01T07:19:11.695Z,12.80
2018-10-01T07:21:40.767Z,12.80
2018-10-01T07:24:09.865Z,12.70
2018-10-01T07:26:38.969Z,12.80
2018-10-01T07:29:08.074Z,12.80
2018-10-01T07:31:37.158Z,12.80
2018-10-01T07:34:06.288Z,12.80
2018-10-01T07:36:35.377Z,12.90
2018-10-01T07:39:06.438Z,12.80
2018-10-01T07:41:35.500Z,12.80
2018-10-01T07:44:04.549Z,12.90
2018-10-01T07:46:33.646Z,12.90
2018-10-01T07:49:02.741Z,12.90
2018-10-01T07:51:31.839Z,12.90
2018-10-01T07:54:00.939Z,12.90
2018-10-01T07:56:30.129Z,12.90
2018-10-01T07:58:59.230Z,12.90
2018-10-01T08:01:28.354Z,12.90
2018-10-01T08:03:57.454Z,12.90
2018-10-01T08:06:26.718Z,12.90
2018-10-01T08:08:55.802Z,13.00
2018-10-01T08:11:24.909Z,13.10
2018-10-01T08:13:54.015Z,13.10
2018-10-01T08:16:23.113Z,13.10
2018-10-01T08:18:52.214Z,13.10
2018-10-01T08:21:21.310Z,13.10
2018-10-01T08:23:50.397Z,13.20
2018-10-01T08:26:20.945Z,13.20
2018-10-01T08:28:50.042Z,13.20
2018-10-01T08:31:19.162Z,13.20
2018-10-01T08:33:48.237Z,13.20
2018-10-01T08:36:17.457Z,13.30
2018-10-01T08:38:46.686Z,13.30
2018-10-01T08:41:15.800Z,13.30
2018-10-01T08:43:44.798Z,13.30
2018-10-01T08:46:13.965Z,13.20
2018-10-01T08:48:50.305Z,13.30
2018-10-01T08:51:23.424Z,13.30
2018-10-01T08:53:57.689Z,13.30
2018-10-01T08:56:26.946Z,13.30
2018-10-01T08:58:56.281Z,13.10
2018-10-01T09:01:25.413Z,13.20
2018-10-01T09:03:54.509Z,13.10
2018-10-01T09:06:23.634Z,13.10
2018-10-01T09:08:52.763Z,12.90
2018-10-01T09:11:21.945Z,13.00
2018-10-01T09:13:50.989Z,13.10
2018-10-01T09:16:20.168Z,13.10
2018-10-01T09:18:49.350Z,13.10
2018-10-01T09:21:18.565Z,13.20
2018-10-01T09:23:47.598Z,13.40
2018-10-01T09:26:16.898Z,13.40
2018-10-01T09:28:45.919Z,13.50
2018-10-01T09:31:15.042Z,13.60
2018-10-01T09:33:44.232Z,13.80
2018-10-01T09:36:13.408Z,13.90
2018-10-01T09:38:42.483Z,14.10
2018-10-01T09:41:11.622Z,14.30
2018-10-01T09:43:40.690Z,14.30
2018-10-01T09:46:09.809Z,14.50
2018-10-01T09:48:38.910Z,14.70
2018-10-01T09:51:08.034Z,14.60
2018-10-01T09:53:37.181Z,14.60
2018-10-01T09:56:06.598Z,14.60
2018-10-01T09:58:35.671Z,14.60
2018-10-01T10:01:11.269Z,14.60
2018-10-01T10:03:40.546Z,14.50
2018-10-01T10:06:09.970Z,14.30
2018-10-01T10:08:39.649Z,14.30
2018-10-01T10:11:08.745Z,14.30
2018-10-01T10:13:37.850Z,14.40
2018-10-01T10:16:07.361Z,14.40
2018-10-01T10:18:36.463Z,14.30
2018-10-01T10:21:05.625Z,14.30
2018-10-01T10:23:34.739Z,14.30
2018-10-01T10:26:03.901Z,14.40
2018-10-01T10:28:32.993Z,14.60
2018-10-01T10:31:02.089Z,14.70
2018-10-01T10:33:31.209Z,14.50
2018-10-01T10:36:00.305Z,14.60
2018-10-01T10:38:29.470Z,14.60
2018-10-01T10:40:58.541Z,14.60
2018-10-01T10:43:27.688Z,14.60
2018-10-01T10:45:56.844Z,14.70
2018-10-01T10:48:25.973Z,14.80
2018-10-01T10:50:55.063Z,14.70
2018-10-01T10:53:24.178Z,14.80
2018-10-01T10:55:53.284Z,14.60
2018-10-01T10:58:22.378Z,14.50
2018-10-01T11:00:51.465Z,14.60
2018-10-01T11:03:20.582Z,14.60
2018-10-01T11:05:49.677Z,14.60
2018-10-01T11:08:18.927Z,14.70
2018-10-01T11:10:47.966Z,14.50
2018-10-01T11:13:17.164Z,14.60
2018-10-01T11:15:46.313Z,14.60
2018-10-01T11:18:15.464Z,14.60
2018-10-01T11:20:44.509Z,14.50
2018-10-01T11:23:13.685Z,14.40
2018-10-01T11:25:42.853Z,14.30
2018-10-01T11:28:11.985Z,14.30
2018-10-01T11:30:41.122Z,14.20
2018-10-01T11:33:10.274Z,14.20
2018-10-01T11:35:39.467Z,14.30
2018-10-01T11:38:08.929Z,14.30
2018-10-01T11:40:38.046Z,14.30
2018-10-01T11:43:07.144Z,14.40
2018-10-01T11:45:36.350Z,14.40
2018-10-01T11:48:05.412Z,14.50
2018-10-01T11:50:34.517Z,14.40
2018-10-01T11:53:04.157Z,14.40
2018-10-01T11:55:33.269Z,14.40
2018-10-01T11:58:02.391Z,14.50
2018-10-01T12:00:31.461Z,14.40
2018-10-01T12:03:00.580Z,14.30
2018-10-01T12:05:29.774Z,14.30
2018-10-01T12:07:58.916Z,14.30
2018-10-01T12:10:28.040Z,14.20
2018-10-01T12:12:57.163Z,14.10
2018-10-01T12:15:26.341Z,14.10
2018-10-01T12:17:55.403Z,14.00
2018-10-01T12:20:24.526Z,14.00
2018-10-01T12:22:53.701Z,13.90
2018-10-01T12:25:22.821Z,13.90
2018-10-01T12:27:51.906Z,13.90
2018-10-01T12:30:21.033Z,13.80
2018-10-01T12:32:50.110Z,13.80
2018-10-01T12:35:19.253Z,13.70
2018-10-01T12:37:48.394Z,13.70
2018-10-01T12:40:17.514Z,13.70
2018-10-01T12:42:46.619Z,13.70
2018-10-01T12:45:15.882Z,13.70
2018-10-01T12:47:44.927Z,13.70
2018-10-01T12:50:14.085Z,13.70
2018-10-01T12:52:43.210Z,13.70
2018-10-01T12:55:12.301Z,13.70
2018-10-01T12:57:42.646Z,13.80
2018-10-01T13:00:11.686Z,13.70
2018-10-01T13:02:40.748Z,13.80
2018-10-01T13:05:09.854Z,13.80
2018-10-01T13:07:38.969Z,13.90
2018-10-01T13:10:08.082Z,13.90
2018-10-01T13:12:37.229Z,13.90
2018-10-01T13:15:06.914Z,13.90
2018-10-01T13:17:35.977Z,13.90
2018-10-01T13:20:05.637Z,13.80
2018-10-01T13:22:34.703Z,13.70
2018-10-01T13:25:04.106Z,13.50
2018-10-01T13:27:33.077Z,13.20
2018-10-01T13:30:02.225Z,13.20
2018-10-01T13:32:31.261Z,13.10
2018-10-01T13:35:00.358Z,12.90
2018-10-01T13:37:29.429Z,12.70
2018-10-01T13:39:58.530Z,12.60
2018-10-01T13:42:27.708Z,12.40
2018-10-01T13:44:56.811Z,12.40
2018-10-01T13:47:25.923Z,12.40
2018-10-01T13:49:55.343Z,12.60
2018-10-01T13:52:24.423Z,12.60
2018-10-01T13:54:53.558Z,12.50
2018-10-01T13:57:22.642Z,12.50
2018-10-01T13:59:51.745Z,12.20
2018-10-01T14:02:21.671Z,12.30
2018-10-01T14:04:50.908Z,12.40
2018-10-01T14:07:20.104Z,12.40
2018-10-01T14:09:49.123Z,12.20
2018-10-01T14:12:18.442Z,12.10
2018-10-01T14:14:47.616Z,12.10
2018-10-01T14:17:16.733Z,12.10
2018-10-01T14:19:45.875Z,12.00
2018-10-01T14:22:14.946Z,12.00
2018-10-01T14:24:44.139Z,12.10
2018-10-01T14:27:13.267Z,12.20
2018-10-01T14:29:42.346Z,12.20
2018-10-01T14:32:11.460Z,12.20
2018-10-01T14:34:40.617Z,12.00
2018-10-01T14:37:09.750Z,12.00
2018-10-01T14:39:38.838Z,11.90
2018-10-01T14:42:08.069Z,12.00
2018-10-01T14:44:37.498Z,12.10
2018-10-01T14:47:06.638Z,12.10
2018-10-01T14:49:35.722Z,12.10
2018-10-01T14:52:04.813Z,12.00
2018-10-01T14:54:33.866Z,12.00
2018-10-01T14:57:03.029Z,12.10
2018-10-01T14:59:32.053Z,12.10
2018-10-01T15:02:01.128Z,12.10
2018-10-01T15:04:30.197Z,12.00
2018-10-01T15:06:59.310Z,12.10
2018-10-01T15:09:28.385Z,12.30
2018-10-01T15:11:57.499Z,12.20
2018-10-01T15:14:26.530Z,12.20
2018-10-01T15:16:55.601Z,12.30
2018-10-01T15:19:24.672Z,12.20
2018-10-01T15:21:53.738Z,12.00
2018-10-01T15:24:22.827Z,12.00
2018-10-01T15:26:51.917Z,12.10
2018-10-01T15:29:20.973Z,12.00
2018-10-01T15:31:50.057Z,12.00
2018-10-01T15:34:19.133Z,12.20
2018-10-01T15:36:48.209Z,12.10
2018-10-01T15:39:17.279Z,12.20
2018-10-01T15:41:46.366Z,12.20
2018-10-01T15:44:15.518Z,12.30
2018-10-01T15:46:44.618Z,12.20
2018-10-01T15:49:13.670Z,12.20
2018-10-01T15:51:42.790Z,12.20
2018-10-01T15:54:12.334Z,12.20
2018-10-01T15:56:41.427Z,12.30
2018-10-01T15:59:10.505Z,12.40
2018-10-01T16:01:40.554Z,12.40
2018-10-01T16:04:10.093Z,12.50
2018-10-01T16:06:39.699Z,12.50
2018-10-01T16:09:10.848Z,12.40
2018-10-01T16:11:40.705Z,12.40
2018-10-01T16:14:10.264Z,12.50
2018-10-01T16:16:39.870Z,12.50
2018-10-01T16:19:09.272Z,12.30
2018-10-01T16:21:38.410Z,12.30
2018-10-01T16:24:07.545Z,12.20
2018-10-01T16:26:36.799Z,12.40
2018-10-01T16:29:06.533Z,12.40
2018-10-01T16:31:36.399Z,12.30
2018-10-01T16:34:06.930Z,12.30
2018-10-01T16:36:37.081Z,12.20
2018-10-01T16:39:09.985Z,12.20
2018-10-01T16:41:39.814Z,12.20
2018-10-01T16:46:44.462Z,12.40
2018-10-01T16:49:14.562Z,12.40
2018-10-01T16:51:44.499Z,12.40
2018-10-01T16:54:14.285Z,12.30
2018-10-01T16:56:43.410Z,12.20
2018-10-01T16:59:12.681Z,12.20
2018-10-01T17:01:41.758Z,12.20
2018-10-01T17:04:10.968Z,12.00
2018-10-01T17:06:40.290Z,12.20
2018-10-01T17:09:09.486Z,12.30
2018-10-01T17:11:38.570Z,12.10
2018-10-01T17:14:07.893Z,11.50
2018-10-01T17:16:37.423Z,10.80
2018-10-01T17:19:06.547Z,10.70
2018-10-01T17:21:35.625Z,10.40
2018-10-01T17:24:04.829Z,9.10
2018-10-01T17:26:33.886Z,9.50
2018-10-01T17:29:03.930Z,9.40
2018-10-01T17:31:33.033Z,9.60
2018-10-01T17:34:02.591Z,9.80
2018-10-01T17:36:32.922Z,9.90
2018-10-01T17:39:02.134Z,9.90
2018-10-01T17:41:31.589Z,9.80
2018-10-01T17:44:00.690Z,9.60
2018-10-01T17:46:29.770Z,9.50
2018-10-01T17:48:59.526Z,9.20
2018-10-01T17:51:28.697Z,9.10
2018-10-01T17:53:57.913Z,8.90
2018-10-01T17:56:27.053Z,8.80
2018-10-01T17:58:57.338Z,9.10
2018-10-01T18:01:27.494Z,9.20
2018-10-01T18:03:56.633Z,9.30
2018-10-01T18:06:25.716Z,9.10
2018-10-01T18:08:54.820Z,9.20
2018-10-01T18:11:25.180Z,9.40
2018-10-01T18:13:55.151Z,9.00
2018-10-01T18:16:25.011Z,9.30
2018-10-01T18:18:54.811Z,9.30
2018-10-01T18:21:25.946Z,9.20
2018-10-01T18:23:55.442Z,9.10
2018-10-01T18:26:25.274Z,9.00
2018-10-01T18:28:55.263Z,9.00
2018-10-01T18:31:24.989Z,8.90
2018-10-01T18:33:54.086Z,8.90
2018-10-01T18:36:23.170Z,8.90
2018-10-01T18:38:52.225Z,8.70
2018-10-01T18:41:21.325Z,8.70
2018-10-01T18:43:50.540Z,8.50
2018-10-01T18:46:19.661Z,8.60
2018-10-01T18:48:48.701Z,8.50
2018-10-01T18:51:17.793Z,8.60
2018-10-01T18:53:46.874Z,8.60
2018-10-01T18:56:16.039Z,8.30
2018-10-01T18:58:45.078Z,8.40
2018-10-01T19:01:14.138Z,8.50
2018-10-01T19:03:43.264Z,8.40
2018-10-01T19:06:12.471Z,7.80
2018-10-01T19:08:41.491Z,7.90
2018-10-01T19:11:10.573Z,8.10
2018-10-01T19:13:39.674Z,8.30
2018-10-01T19:16:08.785Z,8.20
2018-10-01T19:18:37.883Z,8.00
2018-10-01T19:21:07.210Z,7.80
2018-10-01T19:23:36.687Z,7.70
2018-10-01T19:26:05.921Z,7.60
2018-10-01T19:28:34.913Z,7.80
2018-10-01T19:31:03.999Z,8.00
2018-10-01T19:33:33.081Z,8.00
2018-10-01T19:36:02.273Z,7.90
2018-10-01T19:38:31.264Z,8.00
2018-10-01T19:41:01.350Z,7.90
2018-10-01T19:43:30.518Z,7.80
2018-10-01T19:45:59.577Z,7.80
2018-10-01T19:48:28.761Z,7.50
2018-10-01T19:50:58.052Z,7.60
2018-10-01T19:53:27.202Z,7.60
2018-10-01T19:55:56.285Z,7.90
2018-10-01T19:58:25.365Z,8.10
2018-10-01T20:00:54.487Z,8.30
2018-10-01T20:03:23.635Z,8.30
2018-10-01T20:05:52.745Z,8.20
2018-10-01T20:08:21.833Z,8.30
2018-10-01T20:10:50.986Z,8.30
2018-10-01T20:13:20.159Z,8.30
2018-10-01T20:15:49.276Z,8.00
2018-10-01T20:18:18.393Z,8.00
2018-10-01T20:20:47.505Z,8.30
2018-10-01T20:23:16.557Z,8.40
2018-10-01T20:25:45.716Z,8.30
2018-10-01T20:28:14.993Z,8.20
2018-10-01T20:30:43.967Z,8.30
2018-10-01T20:33:13.015Z,8.10
2018-10-01T20:35:42.195Z,8.30
2018-10-01T20:38:11.230Z,8.30
2018-10-01T20:40:40.376Z,8.30
2018-10-01T20:43:09.502Z,8.20
2018-10-01T20:45:38.599Z,8.20
2018-10-01T20:48:07.731Z,8.40
2018-10-01T20:50:36.804Z,8.40
2018-10-01T20:53:06.784Z,8.50
2018-10-01T20:55:35.801Z,8.50
2018-10-01T20:58:04.932Z,8.60
2018-10-01T21:00:34.022Z,8.50
2018-10-01T21:03:03.142Z,8.40
2018-10-01T21:05:32.234Z,8.50
2018-10-01T21:08:01.346Z,8.60
2018-10-01T21:10:30.430Z,8.50
2018-10-01T21:12:59.633Z,8.50
2018-10-01T21:15:28.710Z,8.60
2018-10-01T21:17:57.796Z,8.50
2018-10-01T21:20:26.870Z,8.20
2018-10-01T21:22:56.041Z,8.40
2018-10-01T21:25:25.134Z,8.50
2018-10-01T21:27:54.214Z,8.60
2018-10-01T21:30:23.288Z,8.50
2018-10-01T21:32:52.366Z,8.50
2018-10-01T21:35:21.437Z,8.50
2018-10-01T21:37:50.644Z,8.50
2018-10-01T21:40:19.793Z,8.40
2018-10-01T21:42:48.981Z,8.50
2018-10-01T21:45:18.622Z,8.60
2018-10-01T21:47:47.685Z,8.80
2018-10-01T21:50:16.839Z,8.80
2018-10-01T21:52:45.925Z,8.90
2018-10-01T21:55:14.996Z,8.80
2018-10-01T21:57:44.057Z,8.60
2018-10-01T22:00:13.194Z,8.80
2018-10-01T22:02:42.318Z,9.00
2018-10-01T22:05:11.428Z,9.10
2018-10-01T22:07:40.584Z,9.10
2018-10-01T22:10:09.720Z,8.90
2018-10-01T22:12:38.746Z,8.90
2018-10-01T22:15:07.849Z,9.10
2018-10-01T22:17:36.904Z,9.10
2018-10-01T22:20:06.029Z,9.10
2018-10-01T22:22:35.931Z,9.10
2018-10-01T22:25:04.970Z,9.00
2018-10-01T22:27:34.009Z,8.80
2018-10-01T22:30:03.082Z,8.90
2018-10-01T22:32:33.753Z,8.90
2018-10-01T22:35:02.834Z,8.90
2018-10-01T22:37:31.881Z,8.90
2018-10-01T22:40:01.690Z,8.90
2018-10-01T22:42:30.774Z,9.00
2018-10-01T22:44:59.858Z,9.10
2018-10-01T22:47:29.013Z,9.00
2018-10-01T22:49:58.081Z,9.10
2018-10-01T22:52:27.134Z,9.10
2018-10-01T22:54:56.213Z,9.10
2018-10-01T22:57:25.277Z,9.10
2018-10-01T22:59:54.486Z,9.20
2018-10-01T23:02:23.793Z,9.20
2018-10-01T23:04:52.903Z,9.30
2018-10-01T23:07:22.373Z,9.30
2018-10-01T23:09:51.461Z,9.30
2018-10-01T23:12:20.582Z,9.20
2018-10-01T23:14:49.704Z,9.00
2018-10-01T23:17:18.767Z,9.00
2018-10-01T23:19:47.877Z,9.10
2018-10-01T23:22:16.946Z,9.10
2018-10-01T23:24:46.033Z,9.10
2018-10-01T23:27:15.110Z,9.00
2018-10-01T23:29:44.190Z,9.00
2018-10-01T23:32:13.263Z,8.80
2018-10-01T23:34:42.354Z,8.60
2018-10-01T23:37:11.418Z,8.50
2018-10-01T23:39:40.526Z,8.40
2018-10-01T23:42:09.718Z,8.70
2018-10-01T23:44:38.778Z,8.70
2018-10-01T23:47:07.889Z,8.50
2018-10-01T23:49:36.954Z,8.60
2018-10-01T23:52:06.370Z,8.70
2018-10-01T23:54:35.446Z,8.70
2018-10-01T23:57:04.581Z,8.60
2018-10-01T23:59:33.671Z,8.50
